May 26, 2022
Temp
 
62.5 °F
 
Dew Pt.
 
58.6 °F
 
Humidity
 
87%
 
Pressure
 
1013.0 hPa 
  rising slowly
Wind
 
0.0 mph 
    NE
Rain
 
0.00 in 
  0.00 in/hr
UV index
 
---  
 
Solar rad.
 
100 W/m²
 
Today

Today: Patchy drizzle and fog before noon.  Mostly cloudy through mid morning, then gradual clearing, with a high near 80. Light southwest wind increasing to 5 to 10 mph in the morning.
Patchy
Drizzle and
Patchy Fog
then Sunny
Tonight

Tonight: Patchy fog after midnight.  Otherwise, increasing clouds, with a low around 54. Southwest wind 5 to 10 mph becoming light  after midnight.
Clear then
Patchy Fog

Hi 80 °F Lo 54 °F
MAP MAG LOCAL DATETIME
y/m/d h:m:s
LAT
deg
LON
deg
DEPTH
km
LOCATION
map1.82022/05/26 08:06:4038.733N122.925W5.32 11 km ( 7 mi) SE of Cloverdale, CA
map0.72022/05/26 07:55:1135.733N117.560W11.05 15 km ( 9 mi) WSW of Searles Valley, CA
map1.32022/05/26 07:28:4333.888N116.860W15.57 4 km ( 3 mi) SSE of Banning, CA
map0.92022/05/26 07:17:2938.833N122.794W1.8 6 km ( 4 mi) W of Cobb, CA
map0.92022/05/26 07:10:2736.014N117.798W0.79 13 km ( 8 mi) NE of Little Lake, CA
map0.92022/05/26 07:08:1338.835N122.793W1.43 6 km ( 4 mi) WNW of Cobb, CA
map0.82022/05/26 06:29:1635.601N117.399W6.28 18 km (11 mi) S of Trona, CA
map1.02022/05/26 06:28:0033.712N116.765W15.19 5 km ( 3 mi) SW of Idyllwild, CA
map0.72022/05/26 06:12:5333.682N116.783W15.37 9 km ( 5 mi) SW of Idyllwild, CA
map1.02022/05/26 06:00:5035.351N117.904W7.99 25 km (15 mi) W of Johannesburg, CA
map0.82022/05/26 05:09:4638.792N122.765W1.5 2 km ( 1 mi) NNW of The Geysers, CA
map0.82022/05/26 04:49:0538.539N119.509W7.1 31 km (19 mi) SSW of Smith Valley, NV
map1.02022/05/26 04:21:1235.607N117.398W4.53 18 km (11 mi) S of Trona, CA
map0.52022/05/26 04:09:3140.108N119.458W14.1 55 km (34 mi) NNE of Spanish Springs, NV
map2.02022/05/26 04:01:1634.508N118.614W1.92 2 km ( 1 mi) NNE of Castaic, CA
map1.72022/05/26 03:51:0636.736N121.405W6.65 9 km ( 6 mi) SSW of Ridgemark, CA
map0.42022/05/26 03:37:1038.836N122.806W1.75 7 km ( 5 mi) WNW of Cobb, CA
map0.72022/05/26 03:30:0433.946N117.067W16.91 5 km ( 3 mi) SSW of Calimesa, CA
map1.12022/05/26 02:46:2436.234N117.882W7.17 12 km ( 8 mi) ESE of Olancha, CA
map0.62022/05/26 02:41:3235.684N117.468W8.71 11 km ( 7 mi) SSW of Searles Valley, CA
map1.02022/05/26 02:38:4738.831N122.763W0.6 4 km ( 2 mi) WNW of Cobb, CA
map1.22022/05/26 02:37:2340.535N119.810W17.5 66 km (41 mi) ENE of Janesville, CA
map1.52022/05/26 02:32:0635.602N117.399W5.1 18 km (11 mi) S of Trona, CA
map1.32022/05/26 02:27:4835.605N117.401W4.94 18 km (11 mi) S of Trona, CA
MAP4.32022/05/26 02:23:3235.603N117.406W4.79 18 km (11 mi) S of Trona, CA
map1.42022/05/26 02:22:4738.454N122.516W-0.32 5 km ( 3 mi) NNE of Kenwood, CA
map0.72022/05/26 02:03:1935.881N117.687W10.67 21 km (13 mi) ESE of Little Lake, CA
map1.92022/05/26 02:00:5136.718N121.358W3.3 11 km ( 7 mi) S of Ridgemark, CA
map1.22022/05/26 02:00:4134.512N117.416W9.47 6 km ( 4 mi) WNW of Mountain View Acres, CA
map0.92022/05/26 01:56:2838.829N122.803W1.59 7 km ( 4 mi) W of Cobb, CA
map0.82022/05/26 01:43:5033.478N116.911W10.65 6 km ( 4 mi) NW of Aguanga, CA
map0.32022/05/26 01:42:4635.904N117.727W-0.02 17 km (10 mi) ESE of Little Lake, CA
map0.82022/05/26 01:16:1935.769N117.569W5.89 15 km ( 9 mi) W of Searles Valley, CA
MAP3.32022/05/26 01:11:3937.231N118.290W5.55 7 km ( 5 mi) N of Big Pine, CA
map1.52022/05/26 01:05:1634.630N116.288W5.91 15 km (10 mi) SW of Ludlow, CA
map2.52022/05/26 01:01:2337.547N118.802W7.56 18 km (11 mi) ESE of Mammoth Lakes, CA
map0.22022/05/26 00:59:3635.908N117.694W1.17 19 km (12 mi) E of Little Lake, CA
map1.22022/05/26 00:58:1033.962N116.827W13.93 6 km ( 4 mi) NE of Banning, CA
map0.92022/05/26 00:40:0434.003N116.966W20.64 8 km ( 5 mi) ESE of Yucaipa, CA
map1.42022/05/26 00:40:0036.003N120.886W9.44 31 km (19 mi) N of Lake Nacimiento, CA
map1.22022/05/26 00:28:2938.831N122.800W1.85 7 km ( 4 mi) W of Cobb, CA
map0.92022/05/26 00:25:0838.829N122.810W1.48 7 km ( 5 mi) NW of The Geysers, CA
map0.22022/05/26 00:07:3333.431N116.632W6.8 14 km ( 9 mi) SSE of Anza, CA
map0.62022/05/26 00:04:2840.096N119.462W12.5 54 km (34 mi) NNE of Spanish Springs, NV
map0.62022/05/25 23:53:1033.971N116.812W16.26 6 km ( 4 mi) NNW of Cabazon, CA
map0.92022/05/25 23:50:0338.834N122.797W2.15 7 km ( 4 mi) WNW of Cobb, CA
map2.42022/05/25 23:47:3138.833N122.795W2.07 6 km ( 4 mi) WNW of Cobb, CA
map0.72022/05/25 23:34:5033.390N116.364W10.34 15 km ( 9 mi) N of Borrego Springs, CA
map0.82022/05/25 23:09:5634.056N116.436W8.81 6 km ( 4 mi) S of Yucca Valley, CA
map0.92022/05/25 22:41:1738.826N122.752W0.89 3 km ( 2 mi) W of Cobb, CA
map2.12022/05/25 22:23:4733.476N116.448W12.33 23 km (14 mi) ESE of Anza, CA
map0.82022/05/25 22:14:0133.413N116.439W14.11 18 km (11 mi) NNW of Borrego Springs, CA
map0.92022/05/25 22:03:3838.845N122.776W0.98 5 km ( 3 mi) WNW of Cobb, CA
map0.32022/05/25 21:53:2435.942N120.456W6.45 5 km ( 3 mi) NNW of Parkfield, CA
map0.92022/05/25 21:52:3337.988N118.753W15.9 44 km (27 mi) NNE of Mammoth Lakes, CA
map0.82022/05/25 21:51:5033.340N116.293W9.59 12 km ( 8 mi) NE of Borrego Springs, CA
map1.12022/05/25 21:42:5733.955N116.835W7.61 5 km ( 3 mi) NE of Banning, CA
map1.52022/05/25 21:41:0738.830N122.795W1.79 6 km ( 4 mi) W of Cobb, CA
map0.72022/05/25 20:46:0838.767N122.760W7.91 1 km ( 1 mi) SSW of The Geysers, CA
map1.12022/05/25 20:41:4038.776N122.712W1.62 4 km ( 2 mi) E of The Geysers, CA
map1.32022/05/25 20:36:5735.425N118.673W7.79 24 km (15 mi) SW of Bodfish, CA
map2.02022/05/25 20:33:5737.405N118.601W2.94 14 km ( 9 mi) WNW of West Bishop, CA
map2.92022/05/25 20:32:3237.414N118.601W11.58 14 km ( 9 mi) WNW of West Bishop, CA
map0.82022/05/25 20:32:3133.794N116.373W14.3 3 km ( 2 mi) SSE of Thousand Palms, CA
map0.92022/05/25 20:30:2138.817N122.819W2.5 7 km ( 4 mi) NW of The Geysers, CA
map1.52022/05/25 20:27:1038.830N122.795W1.8 6 km ( 4 mi) W of Cobb, CA
map0.72022/05/25 20:25:0138.178N117.857W1.4 56 km (35 mi) WNW of Tonopah, NV
map0.92022/05/25 20:20:3838.168N117.867W0.0 57 km (35 mi) W of Tonopah, NV
map1.52022/05/25 20:12:5733.974N117.226W13.15 5 km ( 3 mi) N of Moreno Valley, CA
map0.72022/05/25 19:40:5536.013N117.913W2.66 5 km ( 3 mi) SE of Coso Junction, CA
map0.82022/05/25 19:31:1638.830N122.796W1.87 6 km ( 4 mi) W of Cobb, CA
map0.42022/05/25 19:12:1138.777N122.729W1.24 2 km ( 1 mi) E of The Geysers, CA
map0.92022/05/25 19:07:3938.832N122.836W0.55 9 km ( 6 mi) NW of The Geysers, CA
map0.82022/05/25 18:49:5138.823N122.797W2.62 6 km ( 4 mi) NW of The Geysers, CA
map0.92022/05/25 18:48:2538.836N122.803W2.49 7 km ( 4 mi) WNW of Cobb, CA
map0.92022/05/25 18:40:4138.532N119.502W5.3 31 km (19 mi) SSW of Smith Valley, NV
map0.52022/05/25 18:34:4033.413N116.436W13.31 18 km (11 mi) NNW of Borrego Springs, CA
map0.32022/05/25 18:11:5838.825N122.854W2.03 10 km ( 6 mi) WNW of The Geysers, CA
map0.72022/05/25 18:09:2740.090N119.460W9.7 53 km (33 mi) NNE of Spanish Springs, NV
map1.62022/05/25 17:58:0533.464N116.587W11.18 13 km ( 8 mi) SE of Anza, CA
map1.22022/05/25 17:57:3138.816N122.785W1.66 5 km ( 3 mi) NNW of The Geysers, CA
map0.52022/05/25 17:49:5238.795N122.765W1.69 2 km ( 1 mi) NNW of The Geysers, CA
map2.52022/05/25 17:33:5440.341N124.787W10.08 51 km (32 mi) WSW of Ferndale, CA
map1.22022/05/25 17:20:4738.198N117.778W4.1 50 km (31 mi) WNW of Tonopah, NV
map0.42022/05/25 16:38:3038.836N122.791W1.7 6 km ( 4 mi) WNW of Cobb, CA
map1.22022/05/25 16:37:4233.465N116.587W10.63 13 km ( 8 mi) SE of Anza, CA
map0.72022/05/25 16:31:1538.157N117.968W9.7 65 km (41 mi) W of Tonopah, NV
map0.02022/05/25 16:16:4933.492N116.755W6.81 10 km ( 6 mi) SW of Anza, CA
map1.32022/05/25 16:14:3435.039N117.685W-0.82 1 km ( 1 mi) NNW of Quarry at BORON (Probable quarry explosion)
map0.92022/05/25 16:02:3033.326N116.404W6.3 8 km ( 5 mi) NNW of Borrego Springs, CA
map0.62022/05/25 15:58:5035.962N117.707W4.17 18 km (11 mi) E of Little Lake, CA
map0.32022/05/25 15:58:4340.104N119.474W14.9 54 km (34 mi) NNE of Spanish Springs, NV
map1.12022/05/25 15:22:4338.830N122.814W1.84 8 km ( 5 mi) NW of The Geysers, CA
map0.42022/05/25 15:19:4438.181N117.881W9.6 58 km (36 mi) WNW of Tonopah, NV
map0.42022/05/25 15:17:0640.098N119.467W8.2 54 km (34 mi) NNE of Spanish Springs, NV
map1.72022/05/25 15:16:5932.598N115.523W3.66 6 km ( 4 mi) ENE of Progreso, B.C., MX
map2.12022/05/25 14:56:4140.092N119.468W7.4 53 km (33 mi) NNE of Spanish Springs, NV
map2.52022/05/25 14:39:5636.726N121.410W5.48 10 km ( 6 mi) SSW of Ridgemark, CA
map1.12022/05/25 14:29:4233.872N117.498W0.55 2 km ( 2 mi) N of Quarry at CORONA (Probable quarry explosion)
map2.72022/05/25 14:26:3938.248N118.357W8.8 39 km (24 mi) SE of Hawthorne, NV
map0.92022/05/25 14:10:2538.748N122.735W1.23 4 km ( 2 mi) SSE of The Geysers, CA
map0.92022/05/25 14:09:0734.038N116.885W17.74 12 km ( 8 mi) N of Banning, CA
map0.82022/05/25 13:10:0937.472N118.791W8.15 25 km (15 mi) SE of Mammoth Lakes, CA
map1.52022/05/25 13:07:1737.464N118.624W8.12 19 km (12 mi) NW of West Bishop, CA
map1.52022/05/25 12:44:3035.456N120.596W10.24 7 km ( 5 mi) N of Santa Margarita, CA
map0.92022/05/25 12:33:1838.838N122.799W2 7 km ( 4 mi) WNW of Cobb, CA
map0.52022/05/25 12:10:3440.106N119.433W7.5 56 km (35 mi) NNE of Spanish Springs, NV
map0.92022/05/25 12:04:3234.179N117.930W-0.91 22 km (14 mi) NNW of Quarry at POMONA (Probable quarry explosion)
map0.32022/05/25 12:00:4337.628N118.861W6.91 10 km ( 7 mi) E of Mammoth Lakes, CA
map0.52022/05/25 11:59:4440.106N119.459W0.0 55 km (34 mi) NNE of Spanish Springs, NV
map0.72022/05/25 11:59:2035.749N117.568W7.95 15 km ( 9 mi) W of Searles Valley, CA
map0.52022/05/25 11:52:5340.105N119.474W10.6 54 km (34 mi) NNE of Spanish Springs, NV
map0.92022/05/25 11:51:2933.669N116.767W10.87 9 km ( 6 mi) SSW of Idyllwild, CA
map2.02022/05/25 11:48:2340.095N119.478W11.6 53 km (33 mi) NNE of Spanish Springs, NV
map2.22022/05/25 11:44:5540.096N119.465W6.0 54 km (33 mi) NNE of Spanish Springs, NV
map1.42022/05/25 11:43:1040.096N119.470W11.2 54 km (33 mi) NNE of Spanish Springs, NV
map0.82022/05/25 11:42:0440.104N119.470W9.9 54 km (34 mi) NNE of Spanish Springs, NV
map1.42022/05/25 11:26:3837.411N118.587W11.34 13 km ( 8 mi) WNW of West Bishop, CA
map1.42022/05/25 11:22:2835.752N117.562W9.27 14 km ( 9 mi) W of Searles Valley, CA
map0.82022/05/25 11:08:2835.645N118.326W8.06 14 km ( 8 mi) ESE of Wofford Heights, CA
map1.02022/05/25 11:03:3738.830N122.792W1.75 6 km ( 4 mi) W of Cobb, CA
map0.52022/05/25 10:57:1236.009N117.917W2.7 5 km ( 3 mi) SE of Coso Junction, CA
map0.62022/05/25 10:42:2940.073N119.505W1.0 50 km (31 mi) NNE of Spanish Springs, NV
map0.62022/05/25 10:38:4334.450N117.948W11.38 7 km ( 4 mi) SSW of Pearblossom, CA
map2.62022/05/25 10:29:5534.374N118.722W12.52 8 km ( 5 mi) SE of Piru, CA
map0.62022/05/25 10:21:4033.528N116.740W4.12 7 km ( 4 mi) WSW of Anza, CA
map1.52022/05/25 10:16:5137.623N118.807W9.12 15 km ( 9 mi) E of Mammoth Lakes, CA
map2.02022/05/25 09:25:0634.730N118.150W21 5 km ( 3 mi) N of Lancaster, CA
map0.02022/05/25 09:00:1734.456N117.951W11.38 7 km ( 4 mi) SW of Pearblossom, CA
map1.12022/05/25 08:56:0936.874N121.610W7.8 3 km ( 2 mi) ESE of Aromas, CA
map0.42022/05/25 08:46:2340.101N119.467W6.4 54 km (34 mi) NNE of Spanish Springs, NV
map0.42022/05/25 08:35:1333.293N116.741W13.07 6 km ( 4 mi) NNE of Lake Henshaw, CA
map0.52022/05/25 08:35:0340.106N119.466W9.7 55 km (34 mi) NNE of Spanish Springs, NV
map0.92022/05/25 08:24:3933.366N116.399W10.57 12 km ( 8 mi) N of Borrego Springs, CA
map1.22022/05/25 08:08:5133.364N116.401W10.51 12 km ( 8 mi) N of Borrego Springs, CA
map1.12022/05/25 08:07:1033.026N116.288W7 20 km (12 mi) SW of Ocotillo Wells, CA
map-0.12022/05/25 08:03:4635.683N117.415W5.76 9 km ( 6 mi) S of Searles Valley, CA
map1.32022/05/25 07:47:5339.068N123.316W6.51 8 km ( 5 mi) NNE of Boonville, CA
map0.62022/05/25 07:43:5840.106N119.468W10.5 55 km (34 mi) NNE of Spanish Springs, NV
map0.12022/05/25 07:41:4738.761N122.736W1.7 3 km ( 2 mi) SE of The Geysers, CA
map0.42022/05/25 07:14:2740.074N119.511W9.8 50 km (31 mi) NNE of Spanish Springs, NV
map1.12022/05/25 07:12:0840.101N119.467W9.9 54 km (34 mi) NNE of Spanish Springs, NV
map0.32022/05/25 07:09:3734.000N116.446W7.4 7 km ( 4 mi) NE of Desert Hot Springs, CA
map1.42022/05/25 07:00:2133.760N116.035W5.31 16 km (10 mi) NE of Coachella, CA
map1.12022/05/25 06:59:3937.624N119.024W-0.03 4 km ( 3 mi) WSW of Mammoth Lakes, CA
map1.52022/05/25 06:25:3236.399N121.026W0.2 21 km (13 mi) ENE of Greenfield, CA
map0.32022/05/25 06:05:2539.406N119.851W9.6 14 km ( 8 mi) SSE of Mogul, NV
map1.62022/05/25 05:53:0436.845N121.297W10.64 7 km ( 4 mi) ENE of Ridgemark, CA
map1.32022/05/25 05:42:3932.597N115.538W2.73 5 km ( 3 mi) ENE of Progreso, B.C., MX
map0.42022/05/25 05:40:1438.838N122.842W1.58 10 km ( 6 mi) NW of The Geysers, CA
map0.92022/05/25 05:38:0936.023N117.774W1.91 15 km (10 mi) NE of Little Lake, CA
map0.92022/05/25 05:38:0136.025N117.779W6.66 15 km ( 9 mi) NE of Little Lake, CA
map0.62022/05/25 05:29:1334.047N116.352W8.16 10 km ( 6 mi) SSW of Joshua Tree, CA
map1.02022/05/25 05:27:3433.325N116.290W8.17 11 km ( 7 mi) NE of Borrego Springs, CA
map0.52022/05/25 05:19:0740.102N119.453W3.1 55 km (34 mi) NNE of Spanish Springs, NV
map0.82022/05/25 05:15:1638.188N117.770W10.1 49 km (30 mi) WNW of Tonopah, NV
map1.42022/05/25 05:06:5340.097N119.462W7.4 54 km (34 mi) NNE of Spanish Springs, NV
map1.32022/05/25 05:01:1538.740N122.738W-0.71 4 km ( 3 mi) SSE of The Geysers, CA
map1.92022/05/25 05:00:4438.746N122.735W1.1 4 km ( 2 mi) SSE of The Geysers, CA
map0.92022/05/25 04:55:1536.099N117.869W3.91 9 km ( 6 mi) NE of Coso Junction, CA
map0.92022/05/25 04:54:1436.023N117.771W1.61 16 km (10 mi) NE of Little Lake, CA
map0.62022/05/25 04:48:4633.321N116.287W7.91 11 km ( 7 mi) NE of Borrego Springs, CA
map0.52022/05/25 04:31:2736.051N117.845W2.09 9 km ( 6 mi) E of Coso Junction, CA
map1.42022/05/25 04:26:0332.594N115.527W3.1 6 km ( 3 mi) ENE of Progreso, B.C., MX
map1.22022/05/25 04:21:1332.602N115.533W2.47 5 km ( 3 mi) ENE of Progreso, B.C., MX
map0.42022/05/25 04:08:3040.097N119.463W4.8 54 km (34 mi) NNE of Spanish Springs, NV
map0.42022/05/25 04:07:3740.086N119.471W10.8 53 km (33 mi) NNE of Spanish Springs, NV
map0.32022/05/25 04:05:3140.095N119.468W13.0 54 km (33 mi) NNE of Spanish Springs, NV
map1.02022/05/25 04:03:0040.086N119.463W10.2 53 km (33 mi) NNE of Spanish Springs, NV
map0.52022/05/25 03:53:1040.103N119.462W11.5 55 km (34 mi) NNE of Spanish Springs, NV
map1.72022/05/25 03:43:0136.529N120.981W13.52 33 km (20 mi) ENE of Soledad, CA
map2.22022/05/25 03:38:5440.098N119.462W7.5 54 km (34 mi) NNE of Spanish Springs, NV
map0.42022/05/25 03:22:2840.095N119.455W9.1 54 km (34 mi) NNE of Spanish Springs, NV
map0.32022/05/25 03:21:0540.084N119.473W11.9 52 km (33 mi) NNE of Spanish Springs, NV
map1.02022/05/25 03:18:4240.090N119.458W10.1 53 km (33 mi) NNE of Spanish Springs, NV
map1.12022/05/25 03:09:3032.539N116.188W11.88 27 km (17 mi) ESE of Campo, CA
map1.72022/05/25 03:09:2440.099N119.478W11.5 54 km (33 mi) NNE of Spanish Springs, NV
map0.72022/05/25 03:07:3140.098N119.461W10.0 54 km (34 mi) NNE of Spanish Springs, NV
map2.52022/05/25 02:59:1140.105N119.466W11.1 55 km (34 mi) NNE of Spanish Springs, NV
map0.32022/05/25 02:52:2533.437N116.898W9.35 3 km ( 2 mi) WSW of Aguanga, CA
map0.52022/05/25 02:47:3633.519N116.554W11.86 12 km ( 7 mi) ESE of Anza, CA
map0.52022/05/25 02:44:0840.103N119.456W10.3 55 km (34 mi) NNE of Spanish Springs, NV
map0.72022/05/25 02:37:4240.105N119.468W11.5 55 km (34 mi) NNE of Spanish Springs, NV
map1.12022/05/25 02:35:5640.097N119.453W4.0 54 km (34 mi) NNE of Spanish Springs, NV
map2.52022/05/25 02:31:4240.099N119.464W9.4 54 km (34 mi) NNE of Spanish Springs, NV
map1.22022/05/25 02:25:5232.545N115.529W5.61 6 km ( 4 mi) SE of Progreso, B.C., MX
map0.72022/05/25 02:20:2440.095N119.466W8.5 54 km (33 mi) NNE of Spanish Springs, NV
map0.22022/05/25 02:19:4140.099N119.465W0.0 54 km (34 mi) NNE of Spanish Springs, NV
map0.32022/05/25 02:16:2738.759N122.727W1.75 3 km ( 2 mi) SE of The Geysers, CA
map1.82022/05/25 02:09:0140.089N119.483W12.6 53 km (33 mi) NNE of Spanish Springs, NV
map1.82022/05/25 02:08:1040.088N119.476W6.1 53 km (33 mi) NNE of Spanish Springs, NV
map1.62022/05/25 02:07:1040.100N119.465W11.4 54 km (34 mi) NNE of Spanish Springs, NV
map1.72022/05/25 02:06:3840.089N119.463W7.2 53 km (33 mi) NNE of Spanish Springs, NV
map1.02022/05/25 02:06:0440.104N119.466W12.4 55 km (34 mi) NNE of Spanish Springs, NV
map1.72022/05/25 02:05:2740.091N119.451W6.0 54 km (33 mi) NNE of Spanish Springs, NV
map2.12022/05/25 02:04:1534.784N118.948W11.53 4 km ( 3 mi) S of Frazier Park, CA
map0.82022/05/25 02:00:5440.100N119.466W0.0 54 km (34 mi) NNE of Spanish Springs, NV
map0.72022/05/25 01:59:4039.407N119.736W9.2 14 km ( 9 mi) S of Sparks, NV
map2.42022/05/25 01:58:0740.103N119.454W6.5 55 km (34 mi) NNE of Spanish Springs, NV
map1.12022/05/25 01:52:1732.541N116.188W11.48 27 km (17 mi) ESE of Campo, CA
map0.42022/05/25 01:45:2538.167N117.905W9.1 60 km (37 mi) W of Tonopah, NV
map1.02022/05/25 01:40:0140.094N120.846W12.5 10 km ( 6 mi) ESE of Greenville, CA
map0.32022/05/25 01:22:0838.746N122.736W2.01 4 km ( 2 mi) SSE of The Geysers, CA
map0.22022/05/25 01:14:3640.089N119.471W11.2 53 km (33 mi) NNE of Spanish Springs, NV
map2.02022/05/25 00:58:2032.601N115.530W4.84 6 km ( 3 mi) ENE of Progreso, B.C., MX
map1.82022/05/25 00:38:5032.580N115.527W5.37 5 km ( 3 mi) E of Progreso, B.C., MX
map1.12022/05/25 00:38:3132.596N115.533W8.29 5 km ( 3 mi) ENE of Progreso, B.C., MX
map1.12022/05/25 00:37:0937.402N118.604W3.14 14 km ( 9 mi) WNW of West Bishop, CA
map0.82022/05/25 00:36:4632.862N116.169W8.25 22 km (13 mi) NW of Ocotillo, CA
map1.22022/05/25 00:28:2032.597N115.528W1.15 6 km ( 3 mi) ENE of Progreso, B.C., MX
map1.32022/05/25 00:27:5832.589N115.525W4.63 6 km ( 3 mi) E of Progreso, B.C., MX
map1.62022/05/25 00:18:5132.639N115.713W9.3 14 km ( 9 mi) WNW of Progreso, B.C., MX
map1.92022/05/25 00:14:0032.587N115.526W4.79 5 km ( 3 mi) E of Progreso, B.C., MX
map1.72022/05/25 00:12:4032.603N115.528W4.76 6 km ( 4 mi) ENE of Progreso, B.C., MX
map0.72022/05/24 23:58:3836.111N117.872W4.36 10 km ( 6 mi) NE of Coso Junction, CA
map2.32022/05/24 23:56:0132.593N115.525W6.47 6 km ( 4 mi) ENE of Progreso, B.C., MX
map1.12022/05/24 23:55:4736.149N118.071W2.77 16 km (10 mi) SSW of Olancha, CA
map0.72022/05/24 23:39:1335.639N117.558W10.28 11 km ( 7 mi) E of Ridgecrest, CA
map0.72022/05/24 23:35:5633.376N116.880W6.85 3 km ( 2 mi) NNW of Palomar Observatory, CA
map0.42022/05/24 23:27:1133.445N116.641W5.96 13 km ( 8 mi) SSE of Anza, CA
map0.72022/05/24 23:26:5133.223N116.065W10.49 11 km ( 7 mi) NE of Ocotillo Wells, CA
map1.62022/05/24 23:07:5433.074N115.590W9.91 5 km ( 3 mi) NE of Westmorland, CA
map0.72022/05/24 23:03:5338.831N122.817W1.87 8 km ( 5 mi) NW of The Geysers, CA
map1.12022/05/24 23:00:1333.071N115.585W10.06 5 km ( 3 mi) NE of Westmorland, CA
map-0.12022/05/24 22:57:1738.772N122.739W0.56 2 km ( 1 mi) ESE of The Geysers, CA
map0.62022/05/24 22:36:4933.871N116.534W11.23 4 km ( 2 mi) SSE of Garnet, CA
map0.72022/05/24 22:33:0436.092N117.650W5.41 27 km (17 mi) E of Coso Junction, CA
map1.52022/05/24 22:22:5733.873N116.537W12.01 3 km ( 2 mi) SSE of Garnet, CA
map1.12022/05/24 22:14:0436.173N118.313W3.28 30 km (19 mi) WSW of Olancha, CA
map0.32022/05/24 22:05:3138.151N117.941W12.5 63 km (39 mi) W of Tonopah, NV
map1.22022/05/24 21:46:0235.677N117.519W6.78 14 km ( 9 mi) SW of Searles Valley, CA
map2.52022/05/24 21:41:5938.159N117.938W10.6 63 km (39 mi) W of Tonopah, NV
map0.72022/05/24 21:35:0838.151N117.930W12.3 62 km (38 mi) W of Tonopah, NV
map0.42022/05/24 21:15:3633.449N116.469W13.66 22 km (14 mi) ESE of Anza, CA
map2.22022/05/24 21:05:4634.449N117.947W10.02 7 km ( 5 mi) SSW of Pearblossom, CA
map0.82022/05/24 20:51:1838.812N122.815W2.71 6 km ( 4 mi) NW of The Geysers, CA
map1.62022/05/24 20:26:4532.960N115.528W11 2 km ( 1 mi) S of Brawley, CA
map0.82022/05/24 19:56:1333.822N116.954W13.17 4 km ( 3 mi) N of San Jacinto, CA
map0.52022/05/24 19:47:0633.686N116.685W17.27 7 km ( 4 mi) SSE of Idyllwild, CA
map1.12022/05/24 19:39:4234.394N119.584W11.88 6 km ( 4 mi) W of Carpinteria, CA
map-0.42022/05/24 19:15:1936.726N116.282W1.3 47 km (29 mi) ESE of Beatty, NV
map1.92022/05/24 19:14:4236.607N121.216W8.9 23 km (14 mi) NNE of Soledad, CA
map0.82022/05/24 18:53:0937.989N118.668W10.6 48 km (30 mi) NE of Mammoth Lakes, CA
map1.02022/05/24 18:44:2635.666N117.523W9.41 15 km ( 9 mi) ENE of Ridgecrest, CA
map1.22022/05/24 18:19:1338.394N118.795W15.0 21 km (13 mi) SW of Hawthorne, NV
map1.02022/05/24 17:21:4533.222N116.738W12.16 3 km ( 2 mi) SE of Lake Henshaw, CA
map0.92022/05/24 16:54:5433.662N116.763W14.62 10 km ( 6 mi) SSW of Idyllwild, CA
map0.92022/05/24 16:49:2538.835N122.805W2.02 7 km ( 5 mi) W of Cobb, CA
map1.42022/05/24 16:15:2335.033N117.677W-0.82 0 km ( 0 mi) NE of Quarry at BORON (Probable quarry explosion)
map0.92022/05/24 16:10:3438.181N117.880W7.8 58 km (36 mi) WNW of Tonopah, NV
map0.52022/05/24 15:53:1235.671N117.559W10.51 12 km ( 7 mi) ENE of Ridgecrest, CA
map1.22022/05/24 15:50:4138.804N122.778W2.36 4 km ( 2 mi) NNW of The Geysers, CA
map0.82022/05/24 15:45:1738.825N122.803W2.62 7 km ( 4 mi) NW of The Geysers, CA
map0.42022/05/24 15:38:4233.589N116.804W7.81 13 km ( 8 mi) WNW of Anza, CA
map-0.02022/05/24 15:22:4538.840N122.826W1.77 9 km ( 6 mi) WNW of Cobb, CA
map0.52022/05/24 15:12:1533.521N116.465W7.6 20 km (12 mi) E of Anza, CA
map1.22022/05/24 14:37:0637.995N118.670W2.2 48 km (30 mi) NE of Mammoth Lakes, CA
map0.32022/05/24 14:35:2238.815N122.795W1.81 5 km ( 3 mi) NW of The Geysers, CA
map0.82022/05/24 14:34:5033.978N116.971W15.92 5 km ( 3 mi) N of Beaumont, CA
map0.82022/05/24 14:34:2933.996N116.781W18.03 9 km ( 5 mi) N of Cabazon, CA
map0.42022/05/24 14:33:3338.807N122.774W1.35 4 km ( 2 mi) NNW of The Geysers, CA
map-0.42022/05/24 14:24:1236.770N116.267W3.9 46 km (29 mi) ESE of Beatty, NV
map1.12022/05/24 14:18:0533.059N114.998W-0.2 0 km ( 0 mi) SE of Quarry at RUN (Probable quarry explosion)
map-0.12022/05/24 13:57:1336.767N116.271W4.5 46 km (28 mi) ESE of Beatty, NV
map-0.22022/05/24 13:56:2336.764N116.270W4.3 46 km (29 mi) ESE of Beatty, NV
map0.02022/05/24 13:54:1938.747N122.731W1.53 4 km ( 3 mi) SE of The Geysers, CA
map1.42022/05/24 13:50:2438.831N122.814W0.96 8 km ( 5 mi) NW of The Geysers, CA
map0.72022/05/24 13:40:1333.034N116.283W8.41 19 km (12 mi) SW of Ocotillo Wells, CA
map0.52022/05/24 13:38:4535.489N117.457W6.74 21 km (13 mi) NE of Johannesburg, CA
map0.12022/05/24 13:24:4838.805N122.807W4.89 5 km ( 3 mi) NW of The Geysers, CA
map0.52022/05/24 13:23:0838.786N122.768W3.01 1 km ( 1 mi) NW of The Geysers, CA
map0.42022/05/24 13:20:3833.487N116.554W7.58 13 km ( 8 mi) SE of Anza, CA
map1.32022/05/24 13:02:0635.051N118.347W-1.01 3 km ( 2 mi) W of Quarry at MOJAVE (Probable quarry explosion)
map1.22022/05/24 12:58:5439.276N123.316W1.23 10 km ( 6 mi) W of Redwood Valley, CA
map0.32022/05/24 12:42:5638.838N122.801W2.22 7 km ( 4 mi) WNW of Cobb, CA
map0.92022/05/24 12:41:5037.885N122.220W7.52 4 km ( 2 mi) WNW of Orinda, CA
map0.62022/05/24 11:27:3133.491N116.753W6.42 10 km ( 6 mi) SW of Anza, CA
map1.42022/05/24 11:08:4436.894N121.622W-0.12 2 km ( 1 mi) SSE of Quarry near Logan (Watsonville), CA(Probable quarry explosion)
map0.82022/05/24 11:01:1533.454N116.473W12.71 22 km (13 mi) ESE of Anza, CA
map0.02022/05/24 10:59:4838.820N122.767W2.43 4 km ( 2 mi) W of Cobb, CA
map1.12022/05/24 10:29:4433.707N116.733W17.87 4 km ( 2 mi) SSW of Idyllwild, CA
map0.52022/05/24 09:58:3036.019N120.582W2.38 19 km (12 mi) NW of Parkfield, CA
map0.52022/05/24 09:55:4633.670N116.748W16.15 8 km ( 5 mi) SSW of Idyllwild, CA
map0.12022/05/24 09:07:3438.776N122.724W1 3 km ( 2 mi) E of The Geysers, CA
map1.52022/05/24 09:07:2038.787N122.769W2.31 2 km ( 1 mi) NW of The Geysers, CA
map0.12022/05/24 08:58:3836.644N116.405W5.7 43 km (27 mi) SE of Beatty, NV
map0.22022/05/24 08:25:5238.557N119.506W7.5 29 km (18 mi) SSW of Smith Valley, NV
map0.82022/05/24 08:22:5538.839N122.785W1.22 6 km ( 3 mi) WNW of Cobb, CA
map0.42022/05/24 07:43:2138.779N122.760W2.13 0 km ( 0 mi) WNW of The Geysers, CA
map1.72022/05/24 07:42:0938.803N122.456W5.41 9 km ( 6 mi) E of Hidden Valley Lake, CA
map-0.52022/05/24 07:37:5336.715N116.121W4.6 57 km (36 mi) N of Pahrump, NV
map-0.52022/05/24 07:37:3936.714N116.122W4.9 57 km (35 mi) N of Pahrump, NV
map-0.52022/05/24 07:37:1936.712N116.124W5.2 57 km (35 mi) N of Pahrump, NV
map1.82022/05/24 07:37:1834.276N117.018W4.42 10 km ( 6 mi) WNW of Big Bear Lake, CA
map1.12022/05/24 07:35:2938.824N122.805W1.51 7 km ( 4 mi) NW of The Geysers, CA
map0.32022/05/24 07:33:2338.192N117.766W7.0 49 km (30 mi) WNW of Tonopah, NV
map1.42022/05/24 07:25:0138.746N122.736W1.95 4 km ( 2 mi) SSE of The Geysers, CA
map1.02022/05/24 06:59:1038.836N122.783W1.78 5 km ( 3 mi) WNW of Cobb, CA
map-0.12022/05/24 06:50:2538.808N118.715W16.0 32 km (20 mi) NNW of Hawthorne, NV
map0.42022/05/24 06:33:2238.802N122.772W1.48 3 km ( 2 mi) NNW of The Geysers, CA
map0.22022/05/24 06:26:2136.641N116.409W6.5 43 km (27 mi) SE of Beatty, NV
map0.82022/05/24 06:20:1840.105N119.719W14.2 51 km (32 mi) N of Spanish Springs, NV
map0.62022/05/24 05:24:1936.648N116.413W6.3 42 km (26 mi) SE of Beatty, NV
map2.72022/05/24 05:12:4838.167N117.903W10 60 km (37 mi) W of Tonopah, NV
map-0.32022/05/24 04:57:1038.748N118.473W0.0 28 km (17 mi) NNE of Hawthorne, NV
map1.32022/05/24 04:34:1436.217N117.911W3.12 11 km ( 7 mi) SE of Olancha, CA
map1.22022/05/24 04:34:0936.214N117.911W2.59 11 km ( 7 mi) SE of Olancha, CA
map0.02022/05/24 04:05:3238.737N118.458W0.0 28 km (17 mi) NNE of Hawthorne, NV
map1.62022/05/24 03:42:2338.748N122.737W1.92 4 km ( 2 mi) SSE of The Geysers, CA
map0.52022/05/24 03:36:2135.874N117.682W7.41 21 km (13 mi) ESE of Little Lake, CA
map0.52022/05/24 03:31:1236.077N117.876W2.98 7 km ( 5 mi) ENE of Coso Junction, CA
map0.22022/05/24 03:24:4433.377N116.872W6.73 3 km ( 2 mi) NNW of Palomar Observatory, CA
map0.62022/05/24 03:20:0936.100N117.796W8.63 15 km ( 9 mi) ENE of Coso Junction, CA
map0.92022/05/24 03:13:3738.787N122.767W3.67 1 km ( 1 mi) NW of The Geysers, CA
map2.42022/05/24 03:07:5733.480N116.441W8.61 23 km (14 mi) ESE of Anza, CA
map2.22022/05/24 03:03:2537.085N122.528W7.19 34 km (21 mi) W of Bonny Doon, CA
map1.02022/05/24 02:52:2439.072N123.312W5.68 8 km ( 5 mi) NE of Boonville, CA
map-0.52022/05/24 02:47:5638.696N118.469W9.4 23 km (14 mi) NE of Hawthorne, NV
map-0.32022/05/24 02:39:5338.505N119.493W9.4 34 km (21 mi) SSW of Smith Valley, NV
map0.82022/05/24 02:10:3635.639N117.446W8.86 15 km ( 9 mi) SSW of Searles Valley, CA
map0.32022/05/24 01:45:4738.490N119.473W8.5 35 km (21 mi) SSW of Smith Valley, NV
map1.22022/05/24 01:31:4932.779N115.441W9.56 7 km ( 4 mi) WSW of Holtville, CA
map0.82022/05/24 01:31:3433.357N116.312W11.81 13 km ( 8 mi) NNE of Borrego Springs, CA
map0.82022/05/24 01:31:2338.825N122.799W2.67 6 km ( 4 mi) NW of The Geysers, CA
map1.22022/05/24 00:53:2938.826N122.802W1.62 7 km ( 4 mi) NW of The Geysers, CA
map0.72022/05/24 00:51:3833.933N116.702W15.9 8 km ( 5 mi) ENE of Cabazon, CA
map2.02022/05/24 00:41:5935.510N118.391W4.71 13 km ( 8 mi) SE of Bodfish, CA
map2.22022/05/24 00:23:3136.415N120.993W10.35 25 km (15 mi) ENE of Greenfield, CA
map-0.32022/05/24 00:18:0336.797N116.085W5.8 61 km (38 mi) ESE of Beatty, NV
map0.32022/05/24 00:05:2233.511N116.492W13.11 18 km (11 mi) ESE of Anza, CA
map1.02022/05/23 23:26:1938.829N122.799W2.06 7 km ( 4 mi) W of Cobb, CA
map0.92022/05/23 23:17:5738.832N122.811W3.91 8 km ( 5 mi) NW of The Geysers, CA
map0.82022/05/23 23:16:1238.477N118.048W0.0 50 km (31 mi) E of Hawthorne, NV
map0.12022/05/23 23:14:3433.672N116.766W11.4 9 km ( 5 mi) SSW of Idyllwild, CA
map0.62022/05/23 23:00:3938.241N118.730W10.3 33 km (20 mi) SSW of Hawthorne, NV
map1.02022/05/23 22:52:2038.829N122.799W2.02 7 km ( 4 mi) W of Cobb, CA
map0.62022/05/23 22:51:4833.462N116.562W8.97 15 km ( 9 mi) SE of Anza, CA
map0.22022/05/23 22:42:1233.653N116.709W15.95 10 km ( 6 mi) S of Idyllwild, CA
map1.02022/05/23 22:38:2138.177N117.859W6.1 56 km (35 mi) WNW of Tonopah, NV
map0.62022/05/23 22:23:4738.818N122.806W2.76 6 km ( 4 mi) NW of The Geysers, CA
map0.82022/05/23 22:19:0438.817N122.805W1.73 6 km ( 4 mi) NW of The Geysers, CA
map1.62022/05/23 22:18:2538.171N117.834W7.9 54 km (34 mi) WNW of Tonopah, NV
map2.62022/05/23 22:16:3339.633N122.008W24.73 12 km ( 8 mi) S of Hamilton City, CA
map-0.32022/05/23 21:59:0536.631N116.352W5.1 47 km (29 mi) SE of Beatty, NV
map2.12022/05/23 21:56:0338.817N122.805W2.36 6 km ( 4 mi) NW of The Geysers, CA
map0.32022/05/23 21:56:0139.415N119.914W7.4 11 km ( 7 mi) S of Mogul, NV
map1.62022/05/23 21:48:2636.146N120.226W9.07 12 km ( 7 mi) E of Coalinga, CA
map0.32022/05/23 21:31:5636.727N116.271W1.5 48 km (30 mi) ESE of Beatty, NV
map0.92022/05/23 21:22:5834.160N118.497W8.78 0 km ( 0 mi) E of Encino, CA
map1.02022/05/23 21:15:3235.858N117.681W5.43 22 km (14 mi) ESE of Little Lake, CA
map0.92022/05/23 21:10:4535.857N117.681W6.02 22 km (14 mi) ESE of Little Lake, CA
map0.72022/05/23 21:05:5637.923N118.571W13.8 48 km (30 mi) NE of Mammoth Lakes, CA
map1.92022/05/23 20:58:3532.176N115.805W2.09 50 km (31 mi) SSW of Progreso, B.C., MX
map1.82022/05/23 20:52:1436.414N120.990W10.05 25 km (16 mi) ENE of Greenfield, CA
map0.62022/05/23 20:23:4238.371N118.910W7.4 30 km (19 mi) SW of Hawthorne, NV
map0.52022/05/23 20:10:2538.818N122.759W1.63 3 km ( 2 mi) W of Cobb, CA
map1.32022/05/23 20:09:5836.101N117.798W7.9 15 km ( 9 mi) ENE of Coso Junction, CA
map0.72022/05/23 19:59:3134.448N117.893W9.89 7 km ( 4 mi) SSE of Pearblossom, CA
map1.22022/05/23 19:22:3638.344N122.385W4.46 7 km ( 4 mi) SSW of Yountville, CA
map1.82022/05/23 19:17:0935.875N117.663W5.98 23 km (14 mi) ESE of Little Lake, CA
map0.32022/05/23 18:57:3939.236N119.830W5.9 10 km ( 6 mi) NW of Carson City, NV
map1.92022/05/23 18:52:0235.725N117.579W7.95 14 km ( 9 mi) NE of Ridgecrest, CA
map0.42022/05/23 18:46:3438.829N122.822W1.65 8 km ( 5 mi) NW of The Geysers, CA
map1.12022/05/23 18:46:1136.020N120.581W3.66 19 km (12 mi) NW of Parkfield, CA
map-0.12022/05/23 18:42:5439.228N120.084W8.1 3 km ( 2 mi) WSW of Tahoe Vista, CA
map1.02022/05/23 16:57:1034.023N117.225W11.24 4 km ( 3 mi) SE of Loma Linda, CA
map0.72022/05/23 16:57:0034.022N117.233W13.29 4 km ( 2 mi) SE of Loma Linda, CA
map1.02022/05/23 16:29:3934.022N117.228W12.14 4 km ( 3 mi) SE of Loma Linda, CA
map0.72022/05/23 16:26:2238.797N122.737W2.1 3 km ( 2 mi) NE of The Geysers, CA
map0.52022/05/23 16:12:4033.672N116.766W10.93 9 km ( 5 mi) SSW of Idyllwild, CA
map0.22022/05/23 16:11:3638.797N122.738W2.06 3 km ( 2 mi) NE of The Geysers, CA
map1.52022/05/23 16:09:2035.033N117.677W-0.82 0 km ( 0 mi) NE of Quarry at BORON (Probable quarry explosion)
map0.92022/05/23 16:07:0238.762N122.729W2.14 3 km ( 2 mi) SE of The Geysers, CA
map1.12022/05/23 16:05:0934.741N118.956W15.04 9 km ( 6 mi) S of Frazier Park, CA
map0.92022/05/23 15:32:4538.828N122.804W1.3 7 km ( 4 mi) NW of The Geysers, CA
map0.82022/05/23 15:20:4933.935N116.037W4.79 23 km (14 mi) S of Twentynine Palms, CA
map1.32022/05/23 15:02:3738.176N117.845W8.6 55 km (34 mi) WNW of Tonopah, NV
map1.62022/05/23 14:59:3838.120N118.102W10.6 64 km (40 mi) SE of Hawthorne, NV
map2.72022/05/23 14:49:5039.790N122.003W16.8 5 km ( 3 mi) N of Hamilton City, CA
map0.62022/05/23 14:42:2238.828N122.814W2.29 8 km ( 5 mi) NW of The Geysers, CA
map1.12022/05/23 14:41:0438.829N122.815W2.27 8 km ( 5 mi) NW of The Geysers, CA
map1.62022/05/23 14:40:3234.988N118.201W-0.82 4 km ( 2 mi) SW of Quarry at TPO-DBM (Probable quarry explosion)
map0.92022/05/23 14:25:4133.447N116.640W6.89 12 km ( 8 mi) SSE of Anza, CA
map0.12022/05/23 13:40:3739.413N119.930W8.1 11 km ( 7 mi) S of Mogul, NV
map0.82022/05/23 13:02:4738.172N117.822W8.0 53 km (33 mi) WNW of Tonopah, NV
map0.92022/05/23 12:52:0933.249N116.976W20.36 6 km ( 4 mi) ENE of Valley Center, CA
map0.42022/05/23 12:48:1839.673N119.508W10.7 17 km (11 mi) E of Spanish Springs, NV
map0.72022/05/23 12:43:3633.547N116.679W8.37 1 km ( 1 mi) SSW of Anza, CA
map0.42022/05/23 12:43:3533.557N116.677W6.44 0 km ( 0 mi) NW of Anza, CA
map0.92022/05/23 12:34:0938.149N117.942W11.5 63 km (39 mi) W of Tonopah, NV
map1.52022/05/23 12:26:3533.845N117.491W2.26 1 km ( 1 mi) SE of Quarry at CORONA (Probable quarry explosion)
map1.12022/05/23 12:06:4733.028N116.288W6.83 19 km (12 mi) SW of Ocotillo Wells, CA
map1.42022/05/23 12:01:2032.900N116.951W-0.33 11 km ( 7 mi) NE of Quarry at CPE-3 (Probable quarry explosion)
map0.82022/05/23 11:54:3433.029N116.293W9.12 20 km (12 mi) SW of Ocotillo Wells, CA
map0.42022/05/23 11:53:2937.480N118.850W2.41 21 km (13 mi) SSE of Mammoth Lakes, CA
map1.92022/05/23 11:51:2036.492N121.057W5.4 25 km (16 mi) ENE of Soledad, CA
map1.12022/05/23 11:50:1933.026N116.290W7.91 20 km (12 mi) SW of Ocotillo Wells, CA
map1.32022/05/23 11:21:0736.457N121.016W7.09 25 km (16 mi) NE of Greenfield, CA
map0.72022/05/23 11:17:3035.859N117.678W6.07 22 km (14 mi) ESE of Little Lake, CA
map0.42022/05/23 11:17:1035.592N117.503W8.44 16 km (10 mi) E of Ridgecrest, CA
map2.02022/05/23 11:15:1136.455N121.049W6.23 23 km (14 mi) NE of Greenfield, CA
map1.12022/05/23 11:03:0233.819N117.489W1.88 4 km ( 2 mi) SSE of Quarry at CORONA (Probable quarry explosion)
map0.52022/05/23 10:56:2335.854N117.672W8.47 23 km (14 mi) ESE of Little Lake, CA
map1.12022/05/23 10:14:5738.525N119.469W6.9 31 km (19 mi) SSW of Smith Valley, NV
map1.82022/05/23 09:41:5135.806N121.272W6.66 32 km (20 mi) NNW of Cambria, CA
map0.82022/05/23 09:22:4038.816N122.806W1.82 6 km ( 4 mi) NW of The Geysers, CA
map0.82022/05/23 08:47:5938.821N122.811W2.64 7 km ( 4 mi) NW of The Geysers, CA
map0.42022/05/23 08:37:1738.838N122.807W1.61 7 km ( 5 mi) WNW of Cobb, CA
map0.72022/05/23 08:35:4833.935N116.036W4.81 23 km (14 mi) S of Twentynine Palms, CA
map0.92022/05/23 08:28:1038.830N122.737W-0.96 2 km ( 1 mi) NW of Cobb, CA
map1.92022/05/23 08:13:3134.541N118.127W12.78 5 km ( 3 mi) NNW of Vincent, CA
map0.92022/05/23 08:13:0533.698N116.710W17.22 5 km ( 3 mi) S of Idyllwild, CA
map0.62022/05/23 07:54:3738.785N122.780W1.89 2 km ( 1 mi) WNW of The Geysers, CA
map1.62022/05/23 07:51:5535.711N117.539W6.5 14 km ( 9 mi) WSW of Searles Valley, CA
map0.42022/05/23 07:42:4338.772N122.710W1.47 4 km ( 3 mi) E of The Geysers, CA
map0.82022/05/23 07:34:2935.923N120.470W4.44 4 km ( 3 mi) NW of Parkfield, CA
map0.92022/05/23 07:21:4038.842N122.873W1.42 12 km ( 8 mi) NW of The Geysers, CA
map0.52022/05/23 07:17:2338.790N122.762W1.75 1 km ( 1 mi) NNW of The Geysers, CA
map0.82022/05/23 07:13:4938.803N122.807W1.11 5 km ( 3 mi) WNW of The Geysers, CA
map0.92022/05/23 07:01:5138.837N122.808W2.45 8 km ( 5 mi) WNW of Cobb, CA
map0.42022/05/23 06:59:2038.840N122.811W2.3 8 km ( 5 mi) WNW of Cobb, CA
map2.12022/05/23 06:51:5637.823N122.218W11.89 1 km ( 1 mi) E of Piedmont, CA
map0.62022/05/23 06:30:0233.446N116.644W7.33 12 km ( 8 mi) SSE of Anza, CA
map1.42022/05/23 06:12:5738.780N122.765W1.22 1 km ( 1 mi) WNW of The Geysers, CA
map1.02022/05/23 06:12:3433.995N117.193W13.56 7 km ( 4 mi) S of Redlands, CA
map0.42022/05/23 06:09:2039.415N119.934W7.6 11 km ( 7 mi) S of Mogul, NV
map1.02022/05/23 06:07:5739.415N119.938W8.0 11 km ( 7 mi) S of Mogul, NV
map1.22022/05/23 06:06:1634.041N117.227W13.89 3 km ( 2 mi) ESE of Loma Linda, CA
map0.62022/05/23 06:05:5934.068N117.294W5.21 2 km ( 1 mi) ESE of Colton, CA
map0.72022/05/23 06:03:1533.364N116.337W4.31 13 km ( 8 mi) NNE of Borrego Springs, CA
map0.42022/05/23 05:55:4238.835N122.807W2.14 7 km ( 5 mi) W of Cobb, CA
map1.22022/05/23 05:53:5538.530N118.154W7.6 41 km (25 mi) E of Hawthorne, NV
map0.92022/05/23 05:48:3738.838N122.837W1.7 10 km ( 6 mi) NW of The Geysers, CA
map1.02022/05/23 05:41:1638.530N118.157W7.6 41 km (25 mi) E of Hawthorne, NV
map0.82022/05/23 05:40:3538.825N122.806W1.4 7 km ( 4 mi) NW of The Geysers, CA
map1.32022/05/23 05:09:4035.698N117.496W4.79 11 km ( 7 mi) SW of Searles Valley, CA
map0.22022/05/23 04:59:4038.793N122.811W3.31 5 km ( 3 mi) WNW of The Geysers, CA
map0.92022/05/23 04:54:5138.788N122.947W5.61 6 km ( 4 mi) ESE of Cloverdale, CA
map-0.12022/05/23 04:42:1136.775N115.972W11.9 63 km (39 mi) N of Pahrump, NV
map0.62022/05/23 04:37:5435.942N117.673W5.11 21 km (13 mi) E of Little Lake, CA
map1.52022/05/23 04:37:0336.465N117.953W9.94 17 km (11 mi) SE of Lone Pine, CA
map0.22022/05/23 04:29:5337.040N115.987W8.4 70 km (43 mi) ENE of Beatty, NV
map0.92022/05/23 04:27:5433.869N116.196W9.1 17 km (10 mi) N of Indio, CA
map0.92022/05/23 04:24:2538.839N122.838W2.01 10 km ( 6 mi) NW of The Geysers, CA
map1.12022/05/23 03:55:1937.380N117.090W2.9 60 km (37 mi) NNW of Beatty, NV
map0.32022/05/23 03:53:1237.378N117.087W0.0 60 km (37 mi) NNW of Beatty, NV
map0.12022/05/23 03:49:3038.759N122.722W1.85 4 km ( 2 mi) SE of The Geysers, CA
map2.72022/05/23 03:32:5034.410N119.411W13.25 10 km ( 6 mi) E of Carpinteria, CA
map0.02022/05/23 03:28:2833.646N116.704W13.42 11 km ( 7 mi) S of Idyllwild, CA
map1.22022/05/23 03:21:4035.259N118.575W9.58 18 km (11 mi) NW of Tehachapi, CA
map1.02022/05/23 03:18:5933.984N117.183W18.03 8 km ( 5 mi) NNE of Moreno Valley, CA
map0.62022/05/23 02:47:4233.694N116.797W16.13 9 km ( 6 mi) SW of Idyllwild, CA
map1.02022/05/23 02:32:2833.924N116.659W14.44 11 km ( 7 mi) WNW of Garnet, CA
map1.62022/05/23 02:28:1338.173N117.819W9.2 53 km (33 mi) WNW of Tonopah, NV
map0.32022/05/23 02:15:3538.836N122.808W2.27 8 km ( 5 mi) WNW of Cobb, CA
map1.12022/05/23 02:11:5236.024N120.586W3.49 20 km (12 mi) NW of Parkfield, CA
map-0.02022/05/23 02:07:4237.638N119.018W-0.1 3 km ( 2 mi) W of Mammoth Lakes, CA
map1.22022/05/23 01:12:2138.795N122.790W0.48 4 km ( 2 mi) NW of The Geysers, CA
map0.72022/05/23 00:11:1133.365N116.377W12.5 12 km ( 8 mi) N of Borrego Springs, CA
map1.82022/05/22 23:26:3537.054N118.309W-1.29 12 km ( 8 mi) S of Big Pine, CA
map0.92022/05/22 23:20:5134.461N117.971W9.49 7 km ( 4 mi) S of Littlerock, CA
map0.72022/05/22 22:36:3937.328N117.929W0.0 37 km (23 mi) ENE of Big Pine, CA
map0.82022/05/22 22:30:3536.655N116.274W7.5 51 km (32 mi) ESE of Beatty, NV
map0.92022/05/22 22:29:4438.821N122.756W0.66 3 km ( 2 mi) W of Cobb, CA
map0.32022/05/22 22:14:4538.791N122.726W2.14 3 km ( 2 mi) ENE of The Geysers, CA
map0.62022/05/22 22:06:3038.886N119.639W0.6 9 km ( 6 mi) E of Gardnerville Ranchos, NV
map1.12022/05/22 21:31:5635.648N120.941W5.04 10 km ( 7 mi) SSW of Lake Nacimiento, CA
map1.02022/05/22 21:28:5834.274N117.018W5.57 10 km ( 6 mi) WNW of Big Bear Lake, CA
map-0.32022/05/22 21:28:5536.770N116.289W6.4 44 km (27 mi) ESE of Beatty, NV
map0.82022/05/22 21:14:5933.148N116.453W14.49 14 km ( 9 mi) SSW of Borrego Springs, CA
map1.32022/05/22 21:02:4637.241N118.330W3.0 9 km ( 6 mi) NNW of Big Pine, CA
map1.02022/05/22 20:50:5438.826N122.798W1.65 6 km ( 4 mi) W of Cobb, CA
map1.42022/05/22 20:43:5134.835N118.957W15 2 km ( 1 mi) NW of Frazier Park, CA
map2.12022/05/22 20:38:0036.729N121.389W2.65 10 km ( 6 mi) SSW of Ridgemark, CA
map1.82022/05/22 20:37:2736.730N121.390W2.59 9 km ( 6 mi) SSW of Ridgemark, CA
map0.92022/05/22 20:33:3738.838N122.810W1.94 8 km ( 5 mi) WNW of Cobb, CA
map0.42022/05/22 20:32:0638.842N122.837W1.78 10 km ( 6 mi) NW of The Geysers, CA
map0.42022/05/22 20:27:4438.780N122.766W2.05 1 km ( 1 mi) WNW of The Geysers, CA
map0.52022/05/22 19:53:4633.227N116.735W5.8 3 km ( 2 mi) ESE of Lake Henshaw, CA
map0.62022/05/22 19:09:4438.330N118.701W4.8 23 km (14 mi) SSW of Hawthorne, NV
map1.02022/05/22 18:36:1633.345N116.830W5.36 3 km ( 2 mi) ESE of Palomar Observatory, CA
map1.72022/05/22 18:28:5438.788N122.765W1.74 1 km ( 1 mi) NNW of The Geysers, CA
map0.82022/05/22 18:21:2635.864N117.693W7.78 21 km (13 mi) ESE of Little Lake, CA
map1.72022/05/22 18:19:1236.562N121.159W7.08 21 km (13 mi) NE of Soledad, CA
map0.92022/05/22 18:17:4138.769N122.728W1.34 3 km ( 2 mi) ESE of The Geysers, CA
map1.32022/05/22 18:06:0736.535N121.114W8.9 23 km (14 mi) ENE of Soledad, CA
map0.92022/05/22 17:57:5534.078N117.290W14.72 2 km ( 1 mi) ENE of Colton, CA
map1.02022/05/22 17:21:2938.836N122.806W2.28 7 km ( 5 mi) WNW of Cobb, CA
map-0.32022/05/22 17:20:5736.776N115.967W12.9 63 km (39 mi) N of Pahrump, NV
map2.62022/05/22 16:40:2838.518N119.523W3.53 33 km (21 mi) SSW of Smith Valley, NV
map0.82022/05/22 16:33:3633.663N116.675W15.77 9 km ( 6 mi) SSE of Idyllwild, CA
map1.02022/05/22 16:33:2738.840N122.876W2.37 12 km ( 8 mi) NW of The Geysers, CA
map1.42022/05/22 16:20:3535.364N118.486W9.75 25 km (15 mi) S of Bodfish, CA
map0.82022/05/22 16:10:3335.908N117.749W6.72 15 km ( 9 mi) ESE of Little Lake, CA
map1.02022/05/22 16:06:0438.808N122.814W3.14 6 km ( 4 mi) NW of The Geysers, CA
map0.72022/05/22 15:37:2238.828N122.814W1.61 8 km ( 5 mi) NW of The Geysers, CA
map1.02022/05/22 15:28:3037.182N121.576W2.39 9 km ( 6 mi) NE of Morgan Hill, CA
map0.42022/05/22 15:22:1538.824N122.848W2.42 10 km ( 6 mi) WNW of The Geysers, CA
map1.42022/05/22 15:19:2938.148N117.880W8.1 58 km (36 mi) W of Tonopah, NV
map1.52022/05/22 15:17:4537.181N121.579W2.54 9 km ( 5 mi) NE of Morgan Hill, CA
map0.22022/05/22 15:14:0938.798N122.747W1.55 2 km ( 1 mi) NNE of The Geysers, CA
map0.92022/05/22 14:44:0238.825N122.796W2.65 6 km ( 4 mi) NNW of The Geysers, CA
map2.32022/05/22 14:31:2534.274N117.016W5.18 10 km ( 6 mi) WNW of Big Bear Lake, CA
map1.52022/05/22 14:23:3135.881N117.678W6.07 22 km (13 mi) ESE of Little Lake, CA
map0.92022/05/22 14:08:4838.396N118.002W8.2 56 km (35 mi) ESE of Hawthorne, NV
map1.12022/05/22 13:58:2538.172N117.880W8.8 58 km (36 mi) WNW of Tonopah, NV
map0.52022/05/22 13:39:3738.833N122.799W1.39 7 km ( 4 mi) W of Cobb, CA
map1.02022/05/22 13:33:0538.851N122.790W1.54 7 km ( 4 mi) WNW of Cobb, CA
map0.42022/05/22 13:32:0838.779N122.721W2.3 3 km ( 2 mi) E of The Geysers, CA
map0.82022/05/22 13:13:3038.813N122.798W1.35 5 km ( 3 mi) NW of The Geysers, CA
map1.32022/05/22 13:08:2535.643N118.324W8.34 14 km ( 9 mi) ENE of Lake Isabella, CA
map-0.22022/05/22 13:01:1138.836N122.811W1.7 8 km ( 5 mi) WNW of Cobb, CA
map0.92022/05/22 13:00:5738.836N122.811W1.87 8 km ( 5 mi) WNW of Cobb, CA
map1.02022/05/22 13:00:3134.021N117.217W15.53 5 km ( 3 mi) SW of Redlands, CA
map1.62022/05/22 12:07:0135.909N117.743W6.44 15 km ( 9 mi) ESE of Little Lake, CA
map1.32022/05/22 11:53:0938.150N117.936W11.7 62 km (39 mi) W of Tonopah, NV
map1.22022/05/22 11:52:4038.836N122.794W2.19 6 km ( 4 mi) WNW of Cobb, CA
map0.92022/05/22 11:48:2638.836N122.794W1.99 6 km ( 4 mi) WNW of Cobb, CA
map0.22022/05/22 11:20:1938.820N122.781W1.75 5 km ( 3 mi) W of Cobb, CA
map1.22022/05/22 11:18:2338.816N122.818W2.44 7 km ( 4 mi) NW of The Geysers, CA
map1.22022/05/22 10:58:4035.661N117.526W11 14 km ( 9 mi) ENE of Ridgecrest, CA
map1.62022/05/22 10:44:3836.155N120.240W11.07 11 km ( 7 mi) E of Coalinga, CA
map-0.42022/05/22 10:44:0136.622N116.053W2.7 46 km (29 mi) N of Pahrump, NV
map0.42022/05/22 10:35:5138.818N122.818W2.39 7 km ( 4 mi) NW of The Geysers, CA
map0.22022/05/22 10:30:5238.825N122.765W2.14 4 km ( 2 mi) W of Cobb, CA
map1.82022/05/22 10:08:1733.858N118.159W13.28 2 km ( 1 mi) W of Lakewood, CA
map0.82022/05/22 09:54:2832.919N116.236W8.95 27 km (17 mi) SSW of Ocotillo Wells, CA
map1.82022/05/22 09:25:0632.731N115.429W13.37 9 km ( 5 mi) NE of Calexico, CA
map1.22022/05/22 09:12:4733.165N116.376W6.81 10 km ( 6 mi) S of Borrego Springs, CA
map0.72022/05/22 09:00:0940.087N119.690W17.2 49 km (30 mi) N of Spanish Springs, NV
map0.52022/05/22 08:54:5434.238N117.760W4.23 15 km ( 9 mi) NE of Glendora, CA
map1.22022/05/22 08:49:0538.814N122.784W1.5 5 km ( 3 mi) NNW of The Geysers, CA
map0.52022/05/22 08:45:3338.794N122.797W0.5 4 km ( 2 mi) WNW of The Geysers, CA
map0.72022/05/22 08:39:3238.752N122.734W1.46 3 km ( 2 mi) SE of The Geysers, CA
map1.12022/05/22 08:39:1138.751N122.734W1.77 4 km ( 2 mi) SSE of The Geysers, CA
map0.82022/05/22 08:28:0537.474N118.816W4.95 23 km (14 mi) SE of Mammoth Lakes, CA
map1.12022/05/22 07:52:5537.517N118.823W4.77 19 km (12 mi) SE of Mammoth Lakes, CA
map1.02022/05/22 07:52:2035.882N117.678W6.48 22 km (13 mi) ESE of Little Lake, CA
map0.62022/05/22 07:44:2535.906N117.749W7.57 15 km ( 9 mi) ESE of Little Lake, CA
map0.22022/05/22 07:43:0938.823N122.766W2.49 4 km ( 2 mi) W of Cobb, CA
map2.32022/05/22 07:37:4237.373N121.737W3.55 7 km ( 4 mi) E of East Foothills, CA
map0.32022/05/22 06:52:3838.773N122.732W-0.73 2 km ( 1 mi) ESE of The Geysers, CA
map0.62022/05/22 06:52:2735.981N120.538W1.56 13 km ( 8 mi) NW of Parkfield, CA
map0.62022/05/22 06:36:0536.032N117.893W5.1 5 km ( 3 mi) ESE of Coso Junction, CA
map2.92022/05/22 06:19:5336.830N121.555W3.45 2 km ( 1 mi) SW of San Juan Bautista, CA
map0.52022/05/22 05:38:3933.488N116.462W8.24 21 km (13 mi) ESE of Anza, CA
map1.32022/05/22 04:49:5232.882N115.537W3.13 5 km ( 3 mi) NE of Imperial, CA
map0.32022/05/22 04:43:0639.378N119.987W6.4 14 km ( 9 mi) N of Incline Village, NV
map0.92022/05/22 04:41:3838.835N122.800W1.92 7 km ( 4 mi) WNW of Cobb, CA
map0.72022/05/22 03:48:3338.803N122.805W1.37 5 km ( 3 mi) NW of The Geysers, CA
map0.42022/05/22 03:45:5538.169N117.901W9.1 60 km (37 mi) W of Tonopah, NV
map0.62022/05/22 03:45:5433.700N117.526W5.87 7 km ( 4 mi) NE of Trabuco Canyon, CA
map0.02022/05/22 03:43:1436.614N116.281W6.7 51 km (32 mi) NNW of Pahrump, NV
map1.12022/05/22 03:12:4238.530N119.477W7.4 30 km (19 mi) SSW of Smith Valley, NV
map1.42022/05/22 03:05:0538.180N117.782W10.3 50 km (31 mi) WNW of Tonopah, NV
map0.82022/05/22 03:00:2335.873N117.706W11.6 19 km (12 mi) ESE of Little Lake, CA
map0.52022/05/22 02:54:5933.672N116.765W11.3 9 km ( 5 mi) SSW of Idyllwild, CA
map1.82022/05/22 02:46:3036.057N117.326W1.3 33 km (20 mi) N of Trona, CA
map0.72022/05/22 02:34:1433.138N116.169W12.03 4 km ( 2 mi) W of Ocotillo Wells, CA
map1.12022/05/22 02:34:1037.419N118.566W11.35 12 km ( 7 mi) WNW of West Bishop, CA
map0.92022/05/22 02:30:2133.934N116.032W5.38 23 km (14 mi) S of Twentynine Palms, CA
map2.62022/05/22 01:26:2334.922N119.017W12.78 8 km ( 5 mi) WSW of Grapevine, CA
map0.32022/05/22 01:22:4140.062N119.668W16.2 46 km (29 mi) N of Spanish Springs, NV
map1.22022/05/22 01:07:4737.630N122.035W2.64 4 km ( 2 mi) ESE of Hayward, CA
map0.62022/05/22 00:51:1233.478N116.457W12.91 22 km (14 mi) ESE of Anza, CA
map0.52022/05/22 00:39:0333.630N116.772W13.72 12 km ( 8 mi) NW of Anza, CA
map0.72022/05/22 00:37:2038.836N122.786W1.87 6 km ( 4 mi) WNW of Cobb, CA
map0.32022/05/22 00:21:1638.836N122.808W1.67 8 km ( 5 mi) WNW of Cobb, CA
map0.62022/05/21 23:53:4738.810N122.795W2.53 5 km ( 3 mi) NW of The Geysers, CA
map1.92022/05/21 23:53:2638.770N122.727W1.64 3 km ( 2 mi) ESE of The Geysers, CA
map2.02022/05/21 23:28:1736.807N121.537W5.95 4 km ( 3 mi) S of San Juan Bautista, CA
map1.02022/05/21 23:28:1535.818N117.643W5.72 22 km (14 mi) N of Ridgecrest, CA
map1.22022/05/21 23:11:0938.909N123.010W5.65 11 km ( 7 mi) N of Cloverdale, CA
map1.02022/05/21 23:01:4738.050N118.760W7.6 50 km (31 mi) NNE of Mammoth Lakes, CA
map1.72022/05/21 22:55:2133.274N116.782W11.85 4 km ( 3 mi) NNW of Lake Henshaw, CA
map0.92022/05/21 22:53:0935.562N117.523W11.03 15 km ( 9 mi) ESE of Ridgecrest, CA
map1.32022/05/21 22:50:2736.142N118.055W0.8 14 km ( 9 mi) NW of Coso Junction, CA
map0.42022/05/21 22:45:2440.087N119.487W19.2 52 km (32 mi) NNE of Spanish Springs, NV
map0.32022/05/21 22:37:2333.574N116.798W8.16 12 km ( 7 mi) W of Anza, CA
map0.82022/05/21 22:21:3038.814N122.796W1.73 5 km ( 3 mi) NW of The Geysers, CA
map0.42022/05/21 22:18:4339.487N119.618W8.5 13 km ( 8 mi) ESE of Sparks, NV
map1.92022/05/21 22:15:4237.471N116.699W8.0 63 km (39 mi) N of Beatty, NV
map2.32022/05/21 22:12:2938.813N122.796W2.2 5 km ( 3 mi) NW of The Geysers, CA
map1.02022/05/21 21:39:1035.873N117.700W8.46 20 km (12 mi) ESE of Little Lake, CA
map1.02022/05/21 21:37:2339.489N119.626W8.8 12 km ( 7 mi) ESE of Sparks, NV
map0.42022/05/21 21:28:0238.832N122.825W1.7 9 km ( 5 mi) NW of The Geysers, CA
map0.72022/05/21 21:20:5137.470N118.814W3.95 24 km (15 mi) SE of Mammoth Lakes, CA
map-0.12022/05/21 21:05:2537.134N115.731W0.0 56 km (35 mi) WSW of Alamo, NV
map1.32022/05/21 20:44:3238.818N122.763W2.03 3 km ( 2 mi) W of Cobb, CA
map0.82022/05/21 20:41:4338.817N122.816W2.81 7 km ( 4 mi) NW of The Geysers, CA
map0.92022/05/21 20:33:5734.055N117.275W15.9 2 km ( 1 mi) WNW of Loma Linda, CA
map0.22022/05/21 20:14:3538.769N122.725W2.78 3 km ( 2 mi) ESE of The Geysers, CA
map0.92022/05/21 20:08:5038.786N122.732W0.84 2 km ( 1 mi) ENE of The Geysers, CA
map-0.22022/05/21 20:07:0436.662N116.123W3.0 51 km (32 mi) N of Pahrump, NV
map0.42022/05/21 19:22:2034.589N119.085W1.17 21 km (13 mi) NE of Ojai, CA
map0.82022/05/21 19:10:0738.812N122.813W2.79 6 km ( 4 mi) NW of The Geysers, CA
MAP3.42022/05/21 18:30:3037.519N118.823W5.31 19 km (12 mi) SE of Mammoth Lakes, CA
map2.22022/05/21 18:29:0032.791N118.293W5.9 6 km ( 4 mi) ESE of San Clemente Is. (SE tip), CA
map1.22022/05/21 18:05:2638.178N117.982W5.3 67 km (42 mi) W of Tonopah, NV
map0.72022/05/21 17:04:5533.739N117.483W10.86 13 km ( 8 mi) NE of Trabuco Canyon, CA
map0.82022/05/21 16:50:3338.793N122.780W3.84 3 km ( 2 mi) NW of The Geysers, CA
map0.82022/05/21 16:50:1538.824N122.809W1.09 7 km ( 4 mi) NW of The Geysers, CA
map0.22022/05/21 16:12:3033.492N116.755W6.31 10 km ( 6 mi) SW of Anza, CA
map0.52022/05/21 15:30:2336.003N117.799W1.66 12 km ( 8 mi) NE of Little Lake, CA
map0.92022/05/21 15:17:5735.783N117.590W10.95 17 km (10 mi) W of Searles Valley, CA
map0.92022/05/21 15:03:5933.960N116.618W13.6 9 km ( 6 mi) NW of Garnet, CA
map1.82022/05/21 14:58:4239.260N122.781W-0.66 15 km (10 mi) NE of Upper Lake, CA
map0.32022/05/21 14:55:4338.825N122.808W4.03 7 km ( 4 mi) NW of The Geysers, CA
map1.02022/05/21 14:55:1237.549N118.881W5.55 13 km ( 8 mi) SE of Mammoth Lakes, CA
map0.92022/05/21 14:47:5136.644N116.412W5.7 42 km (26 mi) SE of Beatty, NV
map1.32022/05/21 13:13:1038.154N118.219W1.4 54 km (34 mi) SE of Hawthorne, NV
map0.02022/05/21 12:52:0838.824N122.763W2.1 3 km ( 2 mi) W of Cobb, CA
map2.02022/05/21 11:57:3134.222N117.525W12.24 5 km ( 3 mi) SSW of Lytle Creek, CA
map1.32022/05/21 11:34:1238.245N118.327W9.8 40 km (25 mi) SE of Hawthorne, NV
map-0.32022/05/21 11:13:5036.773N115.970W12.6 63 km (39 mi) N of Pahrump, NV
map0.52022/05/21 11:13:4235.897N117.740W8.27 16 km (10 mi) ESE of Little Lake, CA
map-0.32022/05/21 11:13:0736.754N115.966W12.4 61 km (38 mi) N of Pahrump, NV
map-0.32022/05/21 11:12:4536.774N115.969W12.4 63 km (39 mi) N of Pahrump, NV
map0.02022/05/21 11:09:5736.774N115.963W12.4 63 km (39 mi) N of Pahrump, NV
map0.82022/05/21 10:52:4136.054N117.844W2.13 9 km ( 6 mi) E of Coso Junction, CA
map1.32022/05/21 10:40:4236.656N121.384W10.71 15 km (10 mi) NE of Chualar, CA
map0.62022/05/21 10:30:2933.424N116.614W8.28 16 km (10 mi) SSE of Anza, CA
map1.12022/05/21 10:15:3835.864N117.665W7.21 23 km (14 mi) ESE of Little Lake, CA
map0.42022/05/21 10:02:4238.834N122.816W1.86 8 km ( 5 mi) NW of The Geysers, CA
map0.52022/05/21 09:31:3938.788N122.768W1.41 2 km ( 1 mi) NW of The Geysers, CA
map2.22022/05/21 09:16:4433.400N116.365W10.03 16 km (10 mi) N of Borrego Springs, CA
map1.02022/05/21 09:12:2538.178N117.838W9.3 55 km (34 mi) WNW of Tonopah, NV
map1.22022/05/21 09:11:2136.101N117.794W8.61 15 km ( 9 mi) ENE of Coso Junction, CA
map0.92022/05/21 09:02:0538.835N122.808W1.55 7 km ( 5 mi) W of Cobb, CA
map1.12022/05/21 08:57:0936.638N121.252W5.5 22 km (14 mi) SSE of Ridgemark, CA
map0.92022/05/21 08:48:3538.781N122.712W1.91 4 km ( 2 mi) E of The Geysers, CA
map0.42022/05/21 08:48:1338.842N122.842W2.06 10 km ( 6 mi) NW of The Geysers, CA
map0.02022/05/21 08:18:2036.777N115.966W12.4 63 km (39 mi) N of Pahrump, NV
map0.92022/05/21 07:55:5238.837N122.801W1.78 7 km ( 4 mi) WNW of Cobb, CA
map1.02022/05/21 07:53:4838.067N118.759W12.3 52 km (32 mi) NNE of Mammoth Lakes, CA
map1.02022/05/21 07:18:4734.182N116.934W9.76 7 km ( 4 mi) SSW of Big Bear Lake, CA
map0.42022/05/21 07:06:5538.806N122.826W1.76 7 km ( 4 mi) WNW of The Geysers, CA
map0.72022/05/21 06:54:4533.474N116.476W14.2 20 km (13 mi) ESE of Anza, CA
map1.22022/05/21 06:37:2738.792N122.762W2.04 2 km ( 1 mi) NNW of The Geysers, CA
map1.12022/05/21 06:35:1935.912N117.713W6.03 18 km (11 mi) E of Little Lake, CA
map0.42022/05/21 05:54:3838.787N122.746W1.78 1 km ( 1 mi) NE of The Geysers, CA
map2.02022/05/21 05:50:2437.503N121.623W7.1 22 km (14 mi) NE of East Foothills, CA
map0.22022/05/21 05:33:3439.225N120.088W7.5 4 km ( 2 mi) WSW of Tahoe Vista, CA
map0.92022/05/21 05:32:5939.225N120.090W8.1 4 km ( 2 mi) WSW of Tahoe Vista, CA
map0.12022/05/21 05:31:0239.226N120.091W7.7 4 km ( 2 mi) WSW of Tahoe Vista, CA
map0.82022/05/21 05:19:0138.566N119.514W7.3 28 km (18 mi) SSW of Smith Valley, NV
map0.42022/05/21 05:16:0638.836N122.805W1.95 7 km ( 5 mi) WNW of Cobb, CA
map0.12022/05/21 04:57:2139.227N120.089W8.1 4 km ( 2 mi) WSW of Tahoe Vista, CA
map1.22022/05/21 04:54:1837.630N122.036W2.48 4 km ( 2 mi) ESE of Hayward, CA
map0.82022/05/21 04:46:5935.925N117.644W3.74 24 km (15 mi) E of Little Lake, CA
map0.72022/05/21 04:21:2633.994N116.876W20.84 8 km ( 5 mi) N of Banning, CA
map1.12022/05/21 04:16:2635.866N117.664W7.59 23 km (14 mi) ESE of Little Lake, CA
map0.92022/05/21 04:09:4338.791N122.725W2.07 3 km ( 2 mi) ENE of The Geysers, CA
map1.22022/05/21 04:08:1639.262N123.484W8.62 20 km (12 mi) SW of Willits, CA
map0.22022/05/21 04:07:0638.828N122.805W2.27 7 km ( 4 mi) NW of The Geysers, CA
map0.92022/05/21 04:06:1338.791N122.726W1.85 3 km ( 2 mi) ENE of The Geysers, CA
map0.92022/05/21 04:04:0236.003N117.799W1.5 12 km ( 8 mi) NE of Little Lake, CA
map0.42022/05/21 03:34:4138.789N122.752W3.69 1 km ( 1 mi) NNE of The Geysers, CA
map0.62022/05/21 03:10:4233.460N116.562W9.2 15 km ( 9 mi) SE of Anza, CA
map0.92022/05/21 03:09:1338.788N122.775W3.87 2 km ( 1 mi) NW of The Geysers, CA
map1.32022/05/21 03:07:1736.036N117.817W1.64 12 km ( 7 mi) E of Coso Junction, CA
map1.02022/05/21 02:33:2633.977N116.581W8.99 7 km ( 5 mi) WNW of Desert Hot Springs, CA
map0.92022/05/21 02:19:2635.609N117.607W13.08 6 km ( 4 mi) ESE of Ridgecrest, CA
map0.82022/05/21 02:05:4036.034N117.817W1.63 12 km ( 7 mi) E of Coso Junction, CA
map0.92022/05/21 01:50:0437.807N117.775W2.4 56 km (35 mi) WSW of Tonopah, NV
map1.92022/05/21 01:19:4235.510N118.384W8.26 13 km ( 8 mi) SE of Bodfish, CA
map2.62022/05/21 01:11:1240.522N122.976W43.13 18 km (11 mi) ESE of Hayfork, CA
map1.82022/05/21 00:56:2636.569N121.123W8.84 24 km (15 mi) NE of Soledad, CA
map0.22022/05/21 00:26:1638.775N122.713W2.05 4 km ( 2 mi) E of The Geysers, CA
map0.82022/05/20 23:58:0335.769N117.580W7.9 16 km (10 mi) W of Searles Valley, CA
map0.42022/05/20 23:15:0833.526N116.737W4.32 7 km ( 4 mi) WSW of Anza, CA
map0.92022/05/20 23:01:1534.008N116.443W7.47 7 km ( 5 mi) NE of Desert Hot Springs, CA
map0.72022/05/20 22:56:3933.591N116.811W8.63 13 km ( 8 mi) WNW of Anza, CA
map-0.12022/05/20 22:41:4536.797N116.082W5.8 61 km (38 mi) ESE of Beatty, NV
map0.92022/05/20 22:41:1538.826N122.762W2.18 3 km ( 2 mi) W of Cobb, CA
map0.72022/05/20 22:11:3337.514N118.788W5.07 22 km (13 mi) SE of Mammoth Lakes, CA
map0.02022/05/20 22:07:3136.800N116.087W5.2 61 km (38 mi) E of Beatty, NV
map1.42022/05/20 22:06:0733.189N115.606W2.09 10 km ( 6 mi) SW of Niland, CA
map1.12022/05/20 21:58:4138.531N119.520W4.5 32 km (20 mi) SSW of Smith Valley, NV
map0.52022/05/20 21:49:2638.146N117.983W9.6 66 km (41 mi) W of Tonopah, NV
map0.92022/05/20 21:08:5438.835N122.806W2.13 7 km ( 5 mi) W of Cobb, CA
map1.12022/05/20 20:43:5235.862N117.673W4.78 23 km (14 mi) ESE of Little Lake, CA
map0.52022/05/20 20:16:1637.584N118.852W3 13 km ( 8 mi) ESE of Mammoth Lakes, CA
map1.22022/05/20 20:07:4438.833N122.815W1.97 8 km ( 5 mi) NW of The Geysers, CA
map1.12022/05/20 19:52:0638.754N122.733W1.31 3 km ( 2 mi) SE of The Geysers, CA
map0.72022/05/20 19:48:3833.694N116.720W15.99 5 km ( 3 mi) S of Idyllwild, CA
map1.32022/05/20 19:44:1038.824N122.797W2.87 6 km ( 4 mi) NW of The Geysers, CA
map0.82022/05/20 19:35:2138.810N122.772W1.8 4 km ( 2 mi) NNW of The Geysers, CA
map0.52022/05/20 19:34:0038.831N122.801W1.72 7 km ( 4 mi) W of Cobb, CA
map1.52022/05/20 19:30:3635.682N117.527W8.94 15 km ( 9 mi) SW of Searles Valley, CA
map1.62022/05/20 19:29:5234.273N117.016W4.11 10 km ( 6 mi) WNW of Big Bear Lake, CA
map1.22022/05/20 19:22:2238.818N122.776W0.51 5 km ( 3 mi) W of Cobb, CA
map2.52022/05/20 19:21:5137.421N118.620W11.68 16 km (10 mi) WNW of West Bishop, CA
map1.82022/05/20 18:55:3235.924N117.649W2.72 23 km (14 mi) E of Little Lake, CA
map0.92022/05/20 17:42:3938.791N122.760W1.13 2 km ( 1 mi) NNW of The Geysers, CA
map0.92022/05/20 17:28:2335.955N117.701W5.39 19 km (12 mi) E of Little Lake, CA
map1.02022/05/20 17:15:1034.140N117.441W7.59 5 km ( 3 mi) NNE of Fontana, CA
map1.02022/05/20 17:12:4035.927N117.644W3.51 24 km (15 mi) E of Little Lake, CA
map0.12022/05/20 16:53:3038.786N122.767W3.17 1 km ( 1 mi) NW of The Geysers, CA
map1.02022/05/20 16:36:5035.955N117.701W5.24 19 km (12 mi) E of Little Lake, CA
map-0.22022/05/20 16:36:0338.752N122.735W0.94 3 km ( 2 mi) SSE of The Geysers, CA
map1.52022/05/20 16:28:2237.442N117.629W6.9 66 km (41 mi) ENE of Big Pine, CA
map1.22022/05/20 16:27:5338.817N122.809W1.52 6 km ( 4 mi) NW of The Geysers, CA
map0.92022/05/20 16:17:4133.950N117.803W6.73 6 km ( 4 mi) SW of Chino Hills, CA
map2.32022/05/20 16:07:4236.566N121.158W2.98 22 km (14 mi) NE of Soledad, CA
map1.32022/05/20 15:55:2938.714N122.353W13.78 18 km (11 mi) NNE of Angwin, CA
map0.42022/05/20 15:50:3638.185N117.861W11.5 57 km (35 mi) WNW of Tonopah, NV
map0.72022/05/20 15:44:3440.069N119.695W12.2 47 km (29 mi) N of Spanish Springs, NV
map2.62022/05/20 15:11:2740.374N124.892W10.12 58 km (36 mi) WSW of Ferndale, CA
map1.02022/05/20 14:57:3034.009N116.450W7.76 7 km ( 4 mi) NE of Desert Hot Springs, CA
map1.72022/05/20 14:39:0234.995N118.182W-0.8 2 km ( 1 mi) SW of Quarry at TPO-DBM (Probable quarry explosion)
map-0.12022/05/20 13:53:0335.923N117.653W3.28 23 km (14 mi) E of Little Lake, CA
map0.82022/05/20 13:34:3037.495N118.845W5.27 20 km (12 mi) SE of Mammoth Lakes, CA
map1.02022/05/20 13:31:4836.099N117.799W9.2 15 km ( 9 mi) ENE of Coso Junction, CA
map0.42022/05/20 13:28:1838.817N122.805W3.06 6 km ( 4 mi) NW of The Geysers, CA
map0.22022/05/20 13:01:5738.784N122.716W-0.61 4 km ( 2 mi) E of The Geysers, CA
map1.02022/05/20 11:21:5736.045N117.713W2.43 21 km (13 mi) E of Coso Junction, CA
map2.52022/05/20 11:10:5035.394N117.719W8.96 8 km ( 5 mi) WNW of Johannesburg, CA
map0.92022/05/20 11:09:4737.158N116.288W7.4 50 km (31 mi) NE of Beatty, NV
map0.52022/05/20 10:56:0933.685N116.759W15.36 7 km ( 4 mi) SSW of Idyllwild, CA
map1.32022/05/20 10:44:5338.545N119.486W8.8 29 km (18 mi) SSW of Smith Valley, NV
map1.62022/05/20 10:36:5533.944N118.020W9.82 3 km ( 2 mi) SE of South Whittier, CA
map1.12022/05/20 10:19:3635.671N117.515W12.57 15 km ( 9 mi) SW of Searles Valley, CA
map1.12022/05/20 10:02:4837.415N118.599W9.7 14 km ( 9 mi) WNW of West Bishop, CA
map1.22022/05/20 09:47:3634.851N118.783W-1.19 2 km ( 1 mi) W of Quarry at GORMAN (Probable quarry explosion)
map0.82022/05/20 09:30:2738.811N122.793W3.02 5 km ( 3 mi) NW of The Geysers, CA
MAP3.12022/05/20 09:20:3540.484N124.309W19.16 11 km ( 7 mi) SSW of Ferndale, CA
map0.12022/05/20 09:05:3438.773N122.721W1.46 3 km ( 2 mi) E of The Geysers, CA
map0.92022/05/20 08:57:1538.836N122.808W1.95 7 km ( 5 mi) WNW of Cobb, CA
map2.22022/05/20 08:50:3540.481N124.306W19.63 11 km ( 7 mi) SSW of Ferndale, CA
map1.02022/05/20 08:12:0933.646N116.705W13.96 11 km ( 7 mi) NNW of Anza, CA
map0.92022/05/20 08:10:4535.674N117.520W10.4 15 km ( 9 mi) SW of Searles Valley, CA
map0.22022/05/20 07:38:0338.516N119.473W7.9 32 km (20 mi) SSW of Smith Valley, NV
map1.62022/05/20 07:37:2636.107N117.890W3.52 9 km ( 5 mi) NE of Coso Junction, CA
map0.32022/05/20 07:30:2235.974N117.683W3.23 21 km (13 mi) ENE of Little Lake, CA
map0.22022/05/20 07:11:1238.761N122.714W1.76 4 km ( 3 mi) ESE of The Geysers, CA
map0.72022/05/20 06:42:3433.964N116.793W13.39 5 km ( 3 mi) N of Cabazon, CA
map0.22022/05/20 06:41:2738.794N122.747W1.87 2 km ( 1 mi) NNE of The Geysers, CA
map0.62022/05/20 06:38:0633.425N116.371W12.22 19 km (12 mi) N of Borrego Springs, CA
map1.12022/05/20 06:25:0238.879N119.641W0.0 9 km ( 5 mi) E of Gardnerville Ranchos, NV
map0.92022/05/20 06:06:1738.821N122.805W2.51 6 km ( 4 mi) NW of The Geysers, CA
map0.72022/05/20 06:04:2233.392N116.386W11.02 15 km ( 9 mi) N of Borrego Springs, CA
map0.42022/05/20 05:10:4338.827N122.804W1.85 7 km ( 4 mi) NW of The Geysers, CA
map2.52022/05/20 04:53:5533.232N116.277W10.62 9 km ( 6 mi) ESE of Borrego Springs, CA
map1.22022/05/20 04:46:1338.827N122.805W1.51 7 km ( 4 mi) NW of The Geysers, CA
map2.02022/05/20 04:38:1636.106N117.884W3.65 9 km ( 6 mi) NE of Coso Junction, CA
map0.92022/05/20 04:38:1036.099N117.797W8.64 15 km ( 9 mi) ENE of Coso Junction, CA
map0.72022/05/20 04:38:1036.099N117.796W8.8 15 km ( 9 mi) ENE of Coso Junction, CA
map0.32022/05/20 04:32:4233.831N116.736W7.79 10 km ( 6 mi) N of Idyllwild, CA
map0.52022/05/20 04:29:3233.706N116.763W14.52 6 km ( 3 mi) SW of Idyllwild, CA
map1.62022/05/20 04:12:5038.791N122.760W0.94 2 km ( 1 mi) NNW of The Geysers, CA
map1.22022/05/20 04:08:4138.814N122.815W2.57 7 km ( 4 mi) NW of The Geysers, CA
map1.12022/05/20 03:57:3234.447N119.388W2.01 13 km ( 8 mi) ENE of Carpinteria, CA
map0.52022/05/20 03:54:5539.629N119.377W10.2 11 km ( 7 mi) WNW of Fernley, NV
map1.02022/05/20 03:44:3233.587N116.810W9.34 13 km ( 8 mi) WNW of Anza, CA
map0.62022/05/20 03:13:1634.014N117.023W13.72 3 km ( 2 mi) SE of Yucaipa, CA
map1.22022/05/20 03:05:5634.078N118.055W14.22 2 km ( 1 mi) E of Rosemead, CA
map0.32022/05/20 02:08:3733.659N116.735W15.86 9 km ( 6 mi) S of Idyllwild, CA
map0.72022/05/20 01:58:4433.405N116.280W9.11 18 km (11 mi) WSW of Oasis, CA
map0.92022/05/20 01:54:0838.793N122.745W1.57 2 km ( 1 mi) NNE of The Geysers, CA
map2.62022/05/20 01:16:4937.944N118.541W9.38 51 km (32 mi) NE of Mammoth Lakes, CA
map0.22022/05/20 01:07:1839.195N119.629W3.3 6 km ( 3 mi) SW of Dayton, NV
map1.12022/05/20 00:35:0035.823N118.306W4.19 13 km ( 8 mi) NE of Kernville, CA
map0.22022/05/20 00:29:2938.826N122.812W1.6 7 km ( 5 mi) NW of The Geysers, CA
map0.92022/05/20 00:22:4638.787N122.770W1.69 2 km ( 1 mi) NW of The Geysers, CA
map1.22022/05/20 00:05:4238.804N122.778W2.16 4 km ( 2 mi) NNW of The Geysers, CA
map0.62022/05/19 23:22:5938.835N122.814W1.79 8 km ( 5 mi) W of Cobb, CA
map0.52022/05/19 23:22:5233.477N116.505W14.1 18 km (11 mi) ESE of Anza, CA
map0.22022/05/19 23:22:2333.480N116.510W13.46 17 km (11 mi) ESE of Anza, CA
map2.52022/05/19 23:16:0840.303N124.380W8.33 32 km (20 mi) SW of Rio Dell, CA
map0.42022/05/19 23:14:5038.834N122.816W1.62 8 km ( 5 mi) NW of The Geysers, CA
map1.12022/05/19 22:36:1039.392N119.786W10.5 15 km ( 9 mi) SSE of Reno, NV
map0.92022/05/19 22:26:3338.802N122.771W1.51 3 km ( 2 mi) NNW of The Geysers, CA
map1.22022/05/19 22:00:3534.000N118.060W12.23 3 km ( 2 mi) NW of Whittier, CA
map0.42022/05/19 21:24:3933.522N116.522W12.34 15 km ( 9 mi) ESE of Anza, CA
map1.12022/05/19 21:15:1134.061N118.277W13.22 0 km ( 0 mi) N of MacArthur Park, CA
map0.92022/05/19 20:59:1338.833N122.797W1.89 6 km ( 4 mi) W of Cobb, CA
map0.82022/05/19 20:46:0033.478N116.507W14.17 18 km (11 mi) ESE of Anza, CA
map0.32022/05/19 20:32:0333.425N116.630W7.11 15 km ( 9 mi) SSE of Anza, CA
map1.02022/05/19 20:23:1833.024N116.286W7.56 20 km (12 mi) SW of Ocotillo Wells, CA
map0.82022/05/19 19:55:4838.818N122.793W3.28 6 km ( 3 mi) NW of The Geysers, CA
map1.12022/05/19 19:43:5538.819N122.793W3.06 6 km ( 3 mi) NW of The Geysers, CA
map1.82022/05/19 17:35:4737.803N121.963W20.76 3 km ( 2 mi) NNE of San Ramon, CA
map0.32022/05/19 17:31:3638.823N122.854W2.41 10 km ( 6 mi) WNW of The Geysers, CA
map2.02022/05/19 17:24:4336.456N117.954W9.49 18 km (11 mi) SE of Lone Pine, CA
map-0.12022/05/19 17:21:2936.738N116.290W9.1 46 km (28 mi) ESE of Beatty, NV
map1.12022/05/19 17:20:4137.401N118.418W7.7 2 km ( 1 mi) N of Dixon Lane-Meadow Creek, CA
map0.92022/05/19 16:54:1638.818N122.761W1.97 3 km ( 2 mi) W of Cobb, CA
map1.52022/05/19 16:04:4236.811N121.111W7.11 23 km (14 mi) E of Ridgemark, CA
map2.02022/05/19 15:57:2532.443N115.499W10.85 17 km (11 mi) SSE of Progreso, B.C., MX
map0.92022/05/19 15:15:2838.787N122.746W1.62 1 km ( 1 mi) NE of The Geysers, CA
map1.02022/05/19 14:53:5438.823N122.805W3.18 7 km ( 4 mi) NW of The Geysers, CA
map1.02022/05/19 14:35:4938.828N122.852W1.82 10 km ( 6 mi) NW of The Geysers, CA
map0.32022/05/19 14:17:2938.840N122.811W2.34 8 km ( 5 mi) WNW of Cobb, CA
map1.72022/05/19 14:11:5938.574N119.457W8.4 25 km (16 mi) SSW of Smith Valley, NV
map0.42022/05/19 14:04:5438.791N122.726W1.78 3 km ( 2 mi) ENE of The Geysers, CA
map1.42022/05/19 13:58:2333.843N117.492W-0.52 1 km ( 1 mi) SE of Quarry at CORONA (Probable quarry explosion)
map1.02022/05/19 13:09:5038.825N122.804W2.24 7 km ( 4 mi) NW of The Geysers, CA
map1.02022/05/19 12:48:3038.839N122.811W1.79 8 km ( 5 mi) WNW of Cobb, CA
map1.92022/05/19 12:33:1436.009N117.912W2.61 5 km ( 3 mi) SE of Coso Junction, CA
map1.02022/05/19 12:03:1433.048N116.356W11.6 23 km (14 mi) S of Borrego Springs, CA
map1.12022/05/19 11:43:5237.538N118.866W6.25 15 km ( 9 mi) SE of Mammoth Lakes, CA
map0.62022/05/19 11:25:5335.754N117.560W7.58 14 km ( 9 mi) W of Searles Valley, CA
map1.42022/05/19 11:22:5633.059N115.006W-0.2 1 km ( 0 mi) W of Quarry at RUN (Probable quarry explosion)
map0.42022/05/19 11:19:5338.781N122.763W-0.74 1 km ( 0 mi) WNW of The Geysers, CA
map1.62022/05/19 11:09:0740.737N122.308W-0.58 2 km ( 1 mi) SSE of Quarry near Mountain Gate (Shasta Res.), CA(Probable quarry explosion)
map0.92022/05/19 11:02:2836.008N117.914W2.67 5 km ( 3 mi) SE of Coso Junction, CA
map0.92022/05/19 10:15:3738.829N122.816W2.08 8 km ( 5 mi) NW of The Geysers, CA
map1.02022/05/19 10:11:2835.683N117.487W6.74 12 km ( 7 mi) SW of Searles Valley, CA
map0.22022/05/19 10:01:4338.795N122.722W2.08 3 km ( 2 mi) S of Cobb, CA
map1.72022/05/19 09:28:0932.738N115.416W13.65 9 km ( 5 mi) SSW of Holtville, CA
map0.62022/05/19 09:07:2038.836N122.782W1.82 5 km ( 3 mi) WNW of Cobb, CA
map1.32022/05/19 08:58:3538.836N122.782W1.89 5 km ( 3 mi) WNW of Cobb, CA
map0.92022/05/19 08:57:2533.469N116.453W12.5 23 km (14 mi) ESE of Anza, CA
map0.62022/05/19 08:42:3233.542N116.647W12.25 3 km ( 2 mi) ESE of Anza, CA
map0.12022/05/19 08:39:4433.538N116.641W11.88 4 km ( 2 mi) ESE of Anza, CA
map0.42022/05/19 08:25:1438.817N122.762W1.34 3 km ( 2 mi) W of Cobb, CA
map1.22022/05/19 08:24:2138.041N122.402W0.26 8 km ( 5 mi) NW of Montalvin, CA
map0.72022/05/19 08:22:4233.538N116.645W12.62 3 km ( 2 mi) SE of Anza, CA